Flight Track Log - Related Links

Times and Time Zones

All times are in EDT time to prevent confusion due to time zone crossing. See the CTL18 flight status page for this flight to view local times or setup timezone preferences in your user account.

Time Position Orientation Groundspeed Altitude Reporting Facility
EDT Latitude Longitude Course Direction KTS MPH feet Rate Location/Type
Wed 07:47:00 PM 43.3904 -84.0180 160° South  Level Estimated
Wed 07:48:00 PM 43.3637 -83.9994 153° Southeast  Level FlightAware Approximate
Wed 07:49:00 PM 43.3371 -83.9809 153° Southeast  Level FlightAware Approximate
Wed 07:50:00 PM 43.3085 -83.9689 160° South  Level Estimated
Wed 07:51:00 PM 43.2809 -83.9532 157° South  Level FlightAware Approximate
Wed 07:52:00 PM 43.2533 -83.9375 157° South  Level FlightAware Approximate
Wed 07:53:00 PM 43.2246 -83.9258 163° South  Level Estimated
Wed 07:54:00 PM 43.1964 -83.9124 161° South  Level FlightAware Approximate
Wed 07:55:00 PM 43.1682 -83.8990 161° South  Level FlightAware Approximate
Wed 07:56:00 PM 43.1399 -83.8856 161° South  Level FlightAware Approximate
Wed 07:57:00 PM 43.1113 -83.8741 160° South  Level Estimated
Wed 07:57:11 PM 42.9428 -83.7939 162° South 149 171 5,100  Level Cleveland Center
Wed 07:58:00 PM 43.0832 -83.8599 160° South  Level FlightAware Approximate
Wed 07:58:13 PM 42.9039 -83.7719 158° South 152 175 5,000  Level Cleveland Center
Wed 07:59:00 PM 43.0552 -83.8456 160° South  Level FlightAware Approximate
Wed 07:59:08 PM 42.8689 -83.7503 156° South 150 173 5,000  Level Cleveland Center
Wed 08:00:00 PM 43.0272 -83.8314 160° South  Level FlightAware Approximate
Wed 08:00:21 PM 42.8217 -83.7311 163° South 150 173 5,000  Level Cleveland Center
Wed 08:01:00 PM 42.9992 -83.8172 160° South  Level FlightAware Approximate
Wed 08:01:22 PM 42.7781 -83.7175 167° South 150 173 5,000  Level Cleveland Center
Wed 08:02:23 PM 42.7369 -83.7014 164° South 150 173 5,100  Climbing Cleveland Center
Wed 08:03:25 PM 42.6956 -83.6881 167° South 151 174 5,000  Descending Cleveland Center
Wed 08:04:26 PM 42.6542 -83.6747 167° South 149 171 5,100 -49 Climbing Cleveland Center
Wed 08:05:27 PM 42.6131 -83.6586 164° South 153 176 4,900 -155 Descending Cleveland Center
Wed 08:06:22 PM 42.5758 -83.6481 168° South 156 180 4,800 -205 Descending Cleveland Center
Wed 08:07:24 PM 42.5303 -83.6347 168° South 163 188 4,500 -281 Descending Cleveland Center
Wed 08:08:30 PM 42.4786 -83.6153 164° South 164 189 4,200 -344 Descending Cleveland Center
Wed 08:09:26 PM 42.4394 -83.5994 163° South 168 193 3,800 -410 Descending Cleveland Center
Wed 08:10:27 PM 42.3961 -83.5833 165° South 168 193 3,400 -492 Descending Cleveland Center
Wed 08:11:28 PM 42.3486 -83.5642 163° South 167 192 2,800 -609 Descending Cleveland Center
Wed 08:12:35 PM 42.3014 -83.5367 157° South 165 190 2,100 -634 Descending Cleveland Center
Wed 08:13:31 PM 42.2664 -83.5153 156° South 142 163 1,500 -643 Descending Cleveland Center
Wed 08:15:00 PM 42.2333 -83.5167 160° South  Level FlightAware Approximate
Wed 08:22:00 PM 42.2393 -83.5310 160° South  Level Estimated
Wed 08:23:00 PM 42.2393 -83.5310 160° South  Level Estimated

Login

Don't have an account? Register now (free) for customized features, flight alerts, and more!